Time;durP1;ratioP1;P1;durP2;ratioP2;P2;SDS_P1;SDS_P2;PMS_P1;PMS_P2;Temp;Humidity;BMP_temperature;BMP_pressure;BME280_temperature;BME280_humidity;BME280_pressure;Samples;Min_cycle;Max_cycle;Signal;HPM_P1;HPM_P2
2021/03/29 00:00:07;;;;;;;4.67;3.53;;;;;;;-3.44;87.93;94363.07;1779764;80;21413;-79
2021/03/29 00:02:34;;;;;;;5.07;3.93;;;;;;;-3.54;87.73;94363.17;1779940;80;21155;-80
2021/03/29 00:05:04;;;;;;;5.70;3.90;;;;;;;-3.61;87.84;94368.04;1778586;80;21641;-81
2021/03/29 00:07:33;;;;;;;47.90;26.70;;;;;;;-3.68;88.07;94363.88;1779447;80;21166;-81
2021/03/29 00:10:05;;;;;;;36.73;21.13;;;;;;;-3.68;88.09;94366.53;1779047;80;21163;-81
2021/03/29 00:12:36;;;;;;;25.10;15.43;;;;;;;-3.70;88.05;94361.23;1779931;80;22054;-79
2021/03/29 00:15:05;;;;;;;13.10;8.20;;;;;;;-3.74;87.84;94363.66;1779557;80;21816;-80
2021/03/29 00:17:35;;;;;;;8.10;5.10;;;;;;;-3.80;88.07;94364.80;1769419;80;21622;-79
2021/03/29 00:20:14;;;;;;;10.40;6.97;;;;;;;-3.83;88.13;94364.03;1808189;77;21099;-77
2021/03/29 00:22:42;;;;;;;8.83;5.33;;;;;;;-3.94;88.17;94362.02;1807159;76;21222;-79
2021/03/29 00:25:14;;;;;;;5.20;3.67;;;;;;;-4.04;88.45;94362.10;1789939;80;21199;-80
2021/03/29 00:27:42;;;;;;;4.17;3.77;;;;;;;-4.10;88.65;94359.77;1774320;80;21223;-80
2021/03/29 00:30:14;;;;;;;3.67;3.20;;;;;;;-4.14;88.96;94367.50;1774807;77;21136;-81
2021/03/29 00:32:42;;;;;;;4.47;3.37;;;;;;;-4.16;89.20;94359.03;1858205;76;21079;-81
2021/03/29 00:35:13;;;;;;;4.60;2.93;;;;;;;-4.13;89.18;94360.34;1847714;77;21059;-81
2021/03/29 00:37:48;;;;;;;6.33;4.00;;;;;;;-4.15;89.13;94357.41;1810261;78;22251;-80
2021/03/29 00:40:23;;;;;;;4.63;3.40;;;;;;;-4.13;89.22;94365.66;1778008;80;21076;-80
2021/03/29 00:43:03;;;;;;;34.37;17.30;;;;;;;-4.08;89.15;94365.61;1803794;77;21124;-81
2021/03/29 00:45:32;;;;;;;19.73;10.47;;;;;;;-4.05;88.84;94363.72;1800403;77;21064;-81
2021/03/29 00:48:02;;;;;;;7.80;6.00;;;;;;;-4.16;88.47;94365.13;1824926;78;21162;-81
2021/03/29 00:50:44;;;;;;;8.10;4.47;;;;;;;-4.27;88.52;94360.98;1788887;77;21142;-77
2021/03/29 00:53:14;;;;;;;50.00;27.47;;;;;;;-4.33;88.72;94362.09;1778712;80;21131;-80
2021/03/29 00:55:43;;;;;;;28.53;16.50;;;;;;;-4.31;89.08;94360.50;1819904;78;21570;-80
2021/03/29 00:58:13;;;;;;;4.07;3.43;;;;;;;-4.28;89.02;94355.97;1814693;77;21036;-82
2021/03/29 01:00:45;;;;;;;5.97;3.70;;;;;;;-4.31;88.79;94359.96;1807845;78;21610;-81
2021/03/29 01:03:27;;;;;;;21.27;13.13;;;;;;;-4.35;88.77;94356.28;1794972;79;22367;-81
2021/03/29 01:06:08;;;;;;;8.67;5.70;;;;;;;-4.34;89.05;94357.86;1772460;81;21141;-81
2021/03/29 01:08:52;;;;;;;12.67;8.93;;;;;;;-4.26;88.87;94352.48;1853718;77;22688;-80
2021/03/29 01:11:30;;;;;;;8.93;4.97;;;;;;;-4.24;88.83;94357.77;1827512;77;21046;-80
2021/03/29 01:14:06;;;;;;;4.73;3.70;;;;;;;-4.18;88.73;94355.31;1822336;78;21580;-79
2021/03/29 01:16:41;;;;;;;39.97;21.70;;;;;;;-4.20;88.36;94360.13;1823209;78;21201;-79
2021/03/29 01:19:15;;;;;;;55.73;29.80;;;;;;;-4.23;88.25;94356.70;1823160;78;21568;-80
2021/03/29 01:21:59;;;;;;;63.67;37.17;;;;;;;-4.28;88.15;94362.60;1813792;78;20959;-81
2021/03/29 01:24:51;;;;;;;71.05;37.40;;;;;;;-4.27;88.38;94363.64;1768905;78;21137;-80
2021/03/29 01:27:20;;;;;;;64.63;35.73;;;;;;;-4.22;88.41;94366.24;1768932;80;23986;-80
2021/03/29 01:29:48;;;;;;;71.17;36.70;;;;;;;-4.20;87.95;94367.30;1815657;78;21016;-78
2021/03/29 01:32:15;;;;;;;64.70;32.70;;;;;;;-4.26;87.76;94361.77;1780286;79;21187;-80
2021/03/29 01:34:42;;;;;;;61.77;34.87;;;;;;;-4.31;87.63;94366.59;1771286;79;21101;-79
2021/03/29 01:37:10;;;;;;;68.57;35.83;;;;;;;-4.38;87.53;94367.99;1747056;82;21055;-81
2021/03/29 01:39:38;;;;;;;51.90;29.60;;;;;;;-4.44;87.52;94369.37;1747115;82;21375;-80
2021/03/29 01:42:06;;;;;;;50.10;27.67;;;;;;;-4.46;87.86;94366.73;1747120;81;21160;-81
2021/03/29 01:44:33;;;;;;;56.77;29.00;;;;;;;-4.49;87.74;94370.72;1747163;82;21100;-81
2021/03/29 01:47:01;;;;;;;58.20;28.60;;;;;;;-4.52;87.83;94366.50;1752752;81;21080;-81
2021/03/29 01:49:30;;;;;;;52.90;27.77;;;;;;;-4.53;87.77;94371.02;1741378;80;21041;-81
2021/03/29 01:51:58;;;;;;;51.93;27.90;;;;;;;-4.59;87.86;94364.15;1806921;77;21626;-80
2021/03/29 01:54:25;;;;;;;20.00;10.63;;;;;;;-4.56;88.01;94364.92;1861547;77;21435;-80
2021/03/29 01:56:53;;;;;;;27.77;16.43;;;;;;;-4.54;87.89;94369.44;1841781;77;21120;-80
2021/03/29 01:59:21;;;;;;;28.30;15.47;;;;;;;-4.59;87.55;94374.77;1852711;76;21009;-77
2021/03/29 02:01:49;;;;;;;39.40;20.70;;;;;;;-4.55;87.92;94369.70;1826011;77;21603;-80
2021/03/29 02:04:16;;;;;;;48.00;25.00;;;;;;;-4.51;87.87;94376.85;1800668;78;21205;-80
2021/03/29 02:06:44;;;;;;;50.30;28.80;;;;;;;-4.52;87.56;94366.50;1839497;78;21209;-80
2021/03/29 02:09:11;;;;;;;48.07;26.70;;;;;;;-4.57;87.34;94364.67;1818776;79;21020;-81
2021/03/29 02:11:39;;;;;;;43.67;26.27;;;;;;;-4.61;87.27;94374.27;1784700;76;21121;-82
2021/03/29 02:14:07;;;;;;;49.10;28.17;;;;;;;-4.58;87.19;94372.39;1838901;76;21090;-80
2021/03/29 02:16:35;;;;;;;38.97;21.13;;;;;;;-4.56;87.01;94375.55;1822855;77;21355;-80
2021/03/29 02:19:04;;;;;;;45.57;25.80;;;;;;;-4.55;86.86;94369.70;1823564;78;21059;-81
2021/03/29 02:21:38;;;;;;;40.23;22.20;;;;;;;-4.58;86.58;94371.06;1827542;78;21047;-81
2021/03/29 02:24:07;;;;;;;43.85;22.27;;;;;;;-4.65;86.52;94380.66;1872864;76;27050;-79
2021/03/29 02:26:38;;;;;;;40.43;22.03;;;;;;;-4.68;86.45;94375.90;1804153;77;21063;-80
2021/03/29 02:29:05;;;;;;;43.30;22.57;;;;;;;-4.76;86.22;94380.47;1855787;75;22392;-80
2021/03/29 02:31:35;;;;;;;34.37;20.27;;;;;;;-4.80;86.53;94374.67;1871170;75;20982;-79
2021/03/29 02:34:04;;;;;;;38.63;23.17;;;;;;;-4.79;86.47;94379.69;1847883;77;21741;-79
2021/03/29 02:36:31;;;;;;;43.53;23.20;;;;;;;-4.79;86.49;94374.38;1838324;78;21113;-79
2021/03/29 02:38:59;;;;;;;38.23;19.23;;;;;;;-4.77;86.37;94382.08;1877818;75;21105;-80
2021/03/29 02:41:29;;;;;;;41.43;20.33;;;;;;;-4.80;86.35;94376.78;1868930;76;22260;-79
2021/03/29 02:43:59;;;;;;;39.53;19.43;;;;;;;-4.81;86.29;94379.19;1882529;75;21089;-80
2021/03/29 02:46:30;;;;;;;38.87;19.93;;;;;;;-4.86;86.31;94387.16;1892704;75;21105;-79
2021/03/29 02:49:02;;;;;;;36.37;21.27;;;;;;;-4.87;86.50;94388.77;1869958;76;21112;-81
2021/03/29 02:51:30;;;;;;;40.10;20.57;;;;;;;-4.84;86.58;94390.88;1831542;77;21113;-80
2021/03/29 02:54:02;;;;;;;47.43;24.00;;;;;;;-4.83;86.49;94399.09;1862492;77;21998;-78
2021/03/29 02:56:33;;;;;;;60.23;32.20;;;;;;;-4.85;86.47;94387.44;1832846;77;21106;-80
2021/03/29 02:59:06;;;;;;;56.17;29.37;;;;;;;-4.89;86.58;94391.17;1862548;74;20935;-78
2021/03/29 03:01:35;;;;;;;54.17;27.97;;;;;;;-4.94;86.46;94387.74;1873343;75;21098;-79
2021/03/29 03:04:03;;;;;;;47.20;23.93;;;;;;;-4.98;86.65;94388.83;1809089;76;21132;-78
2021/03/29 03:06:31;;;;;;;44.17;23.20;;;;;;;-4.97;86.60;94386.42;1864962;77;21769;-80
2021/03/29 03:09:04;;;;;;;41.30;22.20;;;;;;;-5.00;86.48;94392.80;1862350;77;21097;-77
2021/03/29 03:11:28;;;;;;;41.60;20.83;;;;;;;-5.00;86.43;94389.64;1859413;77;21559;-79
2021/03/29 03:13:57;;;;;;;37.17;19.27;;;;;;;-5.08;86.08;94387.55;1845813;77;21098;-78
2021/03/29 03:16:27;;;;;;;40.70;19.23;;;;;;;-5.14;86.29;94390.77;1828414;78;21091;-78
2021/03/29 03:18:55;;;;;;;37.20;18.33;;;;;;;-5.12;86.56;94386.50;1828544;78;21809;-78
2021/03/29 03:21:23;;;;;;;29.10;14.23;;;;;;;-5.07;86.48;94389.69;1772546;80;21082;-79
2021/03/29 03:23:57;;;;;;;32.23;16.20;;;;;;;-5.03;86.50;94383.55;1825432;78;21057;-80
2021/03/29 03:26:26;;;;;;;32.80;17.73;;;;;;;-5.10;86.12;94383.06;1849073;77;21181;-78
2021/03/29 03:28:53;;;;;;;34.77;17.77;;;;;;;-5.14;86.36;94388.66;1859805;77;20999;-74
2021/03/29 03:31:22;;;;;;;39.50;20.17;;;;;;;-5.14;86.45;94394.75;1847666;76;21559;-80
2021/03/29 03:33:51;;;;;;;39.63;20.73;;;;;;;-5.15;86.27;94395.03;1809993;79;21087;-78
2021/03/29 03:36:22;;;;;;;32.27;17.60;;;;;;;-5.16;86.22;94396.08;1816058;77;21028;-80
2021/03/29 03:38:51;;;;;;;23.07;12.80;;;;;;;-5.14;86.11;94394.75;1868944;76;21049;-78
2021/03/29 03:41:23;;;;;;;25.90;12.83;;;;;;;-5.19;85.91;94391.31;1854818;75;21112;-80
2021/03/29 03:43:53;;;;;;;36.43;18.73;;;;;;;-5.26;86.11;94398.80;1831153;77;21890;-79
2021/03/29 03:46:38;;;;;;;41.97;21.33;;;;;;;-5.21;86.46;94400.88;1893000;75;21061;-78
2021/03/29 03:49:16;;;;;;;38.90;18.60;;;;;;;-5.17;86.29;94393.96;1792070;78;21010;-79
2021/03/29 03:51:44;;;;;;;37.50;19.53;;;;;;;-5.15;86.04;94392.38;1868234;75;21045;-78
2021/03/29 03:54:12;;;;;;;41.73;20.87;;;;;;;-5.13;86.12;94396.33;1861458;76;21492;-80
2021/03/29 03:56:40;;;;;;;34.80;17.40;;;;;;;-5.10;85.99;94398.97;1831652;77;22217;-77
2021/03/29 03:59:09;;;;;;;19.53;9.73;;;;;;;-5.10;85.58;94391.55;1855239;75;21057;-78
2021/03/29 04:02:02;;;;;;;25.67;12.17;;;;;;;-5.13;85.27;94388.91;1865292;76;21158;-80
2021/03/29 04:04:32;;;;;;;26.50;14.47;;;;;;;-5.15;85.40;94394.49;1817512;78;21804;-80
2021/03/29 04:07:00;;;;;;;32.47;16.63;;;;;;;-5.19;85.55;94400.59;1810349;79;21360;-81
2021/03/29 04:09:44;;;;;;;28.10;15.37;;;;;;;-5.16;85.64;94400.84;1878622;75;22716;-80
2021/03/29 04:12:11;;;;;;;32.90;15.87;;;;;;;-5.17;85.33;94400.59;1868643;75;21167;-78
2021/03/29 04:14:39;;;;;;;35.20;16.63;;;;;;;-5.19;85.37;94405.39;1887550;75;21100;-81
2021/03/29 04:17:06;;;;;;;35.47;17.23;;;;;;;-5.15;85.53;94401.66;1896618;74;21551;-81
2021/03/29 04:19:36;;;;;;;38.33;19.70;;;;;;;-5.11;85.40;94400.05;1874048;76;21365;-81
2021/03/29 04:22:04;;;;;;;40.57;21.53;;;;;;;-5.13;85.12;94399.52;1858553;77;21348;-82
2021/03/29 04:24:33;;;;;;;48.13;25.73;;;;;;;-5.17;85.15;94399.80;1904641;74;21052;-81
2021/03/29 04:27:02;;;;;;;41.47;21.67;;;;;;;-5.18;85.07;94398.22;1876903;75;21041;-82
2021/03/29 04:29:30;;;;;;;14.23;8.63;;;;;;;-5.23;85.10;94393.74;1886976;75;21028;-78
2021/03/29 04:31:58;;;;;;;20.03;11.67;;;;;;;-5.23;85.28;94399.05;1860397;76;21121;-81
2021/03/29 04:34:26;;;;;;;28.37;14.40;;;;;;;-5.17;85.59;94399.80;1819777;78;21361;-79
2021/03/29 04:36:54;;;;;;;31.63;17.40;;;;;;;-5.10;85.70;94396.86;1811188;79;21497;-79
2021/03/29 04:39:22;;;;;;;16.53;10.27;;;;;;;-5.05;85.44;94399.48;1902060;75;20951;-81
2021/03/29 04:41:50;;;;;;;25.17;13.50;;;;;;;-5.02;85.32;94401.59;1891416;75;21101;-79
2021/03/29 04:44:18;;;;;;;32.07;17.23;;;;;;;-5.00;85.25;94400.26;1872858;75;21096;-80
2021/03/29 04:46:47;;;;;;;39.33;21.53;;;;;;;-4.99;85.23;94402.38;1837983;77;21427;-82
2021/03/29 04:49:14;;;;;;;35.03;19.80;;;;;;;-5.00;85.37;94403.41;1810601;79;21569;-79
2021/03/29 04:51:42;;;;;;;35.30;19.17;;;;;;;-5.00;85.41;94396.28;1815930;77;21052;-79
2021/03/29 04:54:09;;;;;;;35.53;19.00;;;;;;;-4.98;85.64;94406.60;1810008;79;21128;-80
2021/03/29 04:56:39;;;;;;;36.37;19.60;;;;;;;-4.98;85.80;94398.64;1796598;79;21077;-77
2021/03/29 04:59:09;;;;;;;32.90;18.87;;;;;;;-4.91;85.94;94396.48;1825940;75;22238;-77
2021/03/29 05:01:42;;;;;;;37.00;20.47;;;;;;;-4.86;85.72;94393.79;1909198;75;20925;-80
2021/03/29 05:04:10;;;;;;;32.73;19.20;;;;;;;-4.84;85.67;94399.63;1867973;76;21123;-80
2021/03/29 05:06:39;;;;;;;28.13;18.03;;;;;;;-4.79;85.67;94395.61;1908824;75;21088;-79
2021/03/29 05:09:08;;;;;;;25.17;15.50;;;;;;;-4.72;85.70;94401.94;1864859;75;21155;-79
2021/03/29 05:11:47;;;;;;;35.07;19.53;;;;;;;-4.65;85.52;94413.05;1844707;77;21186;-78
2021/03/29 05:14:05;;;;;;;37.83;21.17;;;;;;;-4.56;85.24;94407.41;1856776;75;21630;-79
2021/03/29 05:19:03;;;;;;;39.00;21.90;;;;;;;-4.31;85.24;94405.11;1864821;77;21040;-77
2021/03/29 05:21:31;;;;;;;45.50;22.57;;;;;;;-4.09;85.35;94413.96;1850571;77;21040;-79
2021/03/29 05:24:01;;;;;;;38.57;19.97;;;;;;;-3.96;84.31;94411.97;1878930;75;21057;-77
2021/03/29 05:26:30;;;;;;;40.23;20.37;;;;;;;-3.81;84.05;94412.37;1879355;75;21092;-77
2021/03/29 05:28:57;;;;;;;39.97;23.10;;;;;;;-3.72;83.08;94410.70;1851952;74;23007;-76
2021/03/29 05:31:25;;;;;;;37.70;20.33;;;;;;;-3.69;82.93;94418.62;1922494;74;21562;-77
2021/03/29 05:33:53;;;;;;;33.10;18.23;;;;;;;-3.57;83.28;94420.90;1888233;74;21063;-79
2021/03/29 05:36:20;;;;;;;31.80;18.33;;;;;;;-3.42;82.88;94414.91;1879617;75;21360;-78
2021/03/29 05:38:48;;;;;;;29.20;18.93;;;;;;;-3.24;82.76;94412.56;1857478;76;21183;-78
2021/03/29 05:41:16;;;;;;;22.30;14.77;;;;;;;-3.14;82.06;94412.99;1831656;77;21160;-79
2021/03/29 05:43:45;;;;;;;29.73;16.47;;;;;;;-3.09;81.33;94416.91;1821006;74;21046;-80
2021/03/29 05:46:13;;;;;;;27.93;16.90;;;;;;;-3.12;80.65;94414.81;1913879;75;21567;-78
2021/03/29 05:48:40;;;;;;;27.03;16.50;;;;;;;-3.13;81.03;94414.03;1815126;76;21355;-78
2021/03/29 05:51:08;;;;;;;60.57;32.13;;;;;;;-3.12;80.75;94414.81;1893648;74;21099;-79
2021/03/29 05:53:35;;;;;;;34.43;20.33;;;;;;;-3.01;81.14;94417.61;1903195;75;21119;-80
2021/03/29 05:56:05;;;;;;;36.23;20.17;;;;;;;-2.68;81.17;94413.19;1880374;76;21525;-81
2021/03/29 05:58:39;;;;;;;30.40;18.23;;;;;;;-2.20;81.47;94413.02;1864511;77;21040;-75
2021/03/29 06:01:03;;;;;;;32.27;18.17;;;;;;;-1.74;79.76;94413.05;1905351;75;21515;-80
2021/03/29 06:03:37;;;;;;;33.73;21.50;;;;;;;-1.36;78.94;94407.57;1875553;75;21047;-79
2021/03/29 06:06:17;;;;;;;24.23;16.37;;;;;;;-0.94;78.08;94403.04;1853778;77;21053;-79
2021/03/29 06:08:48;;;;;;;29.92;17.77;;;;;;;-0.32;77.07;94409.97;1868189;75;21577;-80
2021/03/29 06:11:32;;;;;;;23.85;14.13;;;;;;;0.21;75.95;94405.23;1897188;75;21082;-79
2021/03/29 06:14:20;;;;;;;17.15;11.90;;;;;;;0.55;73.01;94403.84;1817482;75;21323;-78
2021/03/29 06:16:55;;;;;;;18.67;10.90;;;;;;;0.85;71.65;94402.80;1914040;75;21131;-80
2021/03/29 06:19:57;;;;;;;13.00;9.15;;;;;;;1.16;69.98;94412.09;1814326;78;21069;-78
2021/03/29 06:22:33;;;;;;;19.00;13.25;;;;;;;1.28;69.29;94408.81;1793445;79;21492;-80
2021/03/29 06:25:08;;;;;;;34.45;23.00;;;;;;;1.51;69.38;94402.26;1742145;79;21102;-79
2021/03/29 06:27:54;;;;;;;17.95;13.15;;;;;;;1.76;69.34;94412.75;1746848;81;21200;-78
2021/03/29 06:30:35;;;;;;;;;;;;;;;1.97;68.33;94406.77;1791302;79;21167;-80
2021/03/29 06:33:14;;;;;;;10.98;8.03;;;;;;;1.94;66.78;94412.98;1757381;80;20244;-80
2021/03/29 06:35:52;;;;;;;15.10;8.60;;;;;;;1.89;66.56;94410.48;1752254;81;21502;-81
2021/03/29 06:38:33;;;;;;;15.53;9.15;;;;;;;1.93;66.24;94406.05;1770478;81;21119;-80
2021/03/29 06:41:00;;;;;;;17.00;10.98;;;;;;;1.93;65.40;94407.95;1741029;82;22270;-80
2021/03/29 06:43:41;;;;;;;17.40;11.83;;;;;;;1.75;65.71;94408.50;1754226;77;21158;-81
2021/03/29 06:46:24;;;;;;;15.40;9.83;;;;;;;1.52;66.14;94406.51;1797950;79;21182;-80
2021/03/29 06:48:55;;;;;;;16.52;10.82;;;;;;;1.46;67.50;94409.09;1736994;81;21072;-80
2021/03/29 06:51:30;;;;;;;22.17;18.42;;;;;;;1.67;68.00;94411.41;1799475;79;21032;-80
2021/03/29 06:54:11;;;;;;;14.35;9.95;;;;;;;1.81;68.06;94414.51;1739267;79;21364;-77
2021/03/29 06:56:40;;;;;;;14.87;8.85;;;;;;;1.98;68.26;94416.39;1825298;76;21091;-77
2021/03/29 06:59:25;;;;;;;10.25;8.23;;;;;;;2.09;67.73;94414.96;1827608;77;21143;-80
2021/03/29 07:01:52;;;;;;;11.30;6.87;;;;;;;2.24;66.11;94410.45;1785815;80;21144;-79
2021/03/29 07:04:24;;;;;;;9.25;7.60;;;;;;;2.29;65.54;94418.88;1770517;80;21112;-79
2021/03/29 07:06:53;;;;;;;10.05;7.12;;;;;;;2.35;65.61;94404.98;1770987;80;22236;-79
2021/03/29 07:09:21;;;;;;;12.40;7.25;;;;;;;2.52;65.47;94404.17;1830769;78;21131;-77
2021/03/29 07:11:49;;;;;;;11.83;8.45;;;;;;;2.71;65.48;94405.14;1811151;77;21116;-79
2021/03/29 07:14:20;;;;;;;9.93;7.65;;;;;;;2.80;64.36;94408.58;1794815;79;21571;-78
2021/03/29 07:16:49;;;;;;;14.63;9.15;;;;;;;2.86;64.91;94404.61;1815352;79;21570;-77
2021/03/29 07:19:17;;;;;;;14.38;9.43;;;;;;;2.99;64.36;94402.03;1815392;79;21163;-80
2021/03/29 07:23:31;;;;;;;16.20;11.20;;;;;;;3.03;64.78;94397.58;1854236;76;22613;-80
2021/03/29 07:25:59;;;;;;;12.93;8.78;;;;;;;3.15;65.08;94407.08;1793650;77;21143;-79
2021/03/29 07:28:30;;;;;;;13.60;9.38;;;;;;;3.32;64.60;94395.47;1799200;79;22239;-79
2021/03/29 07:31:01;;;;;;;13.38;7.83;;;;;;;3.50;64.87;94396.12;1733837;82;21661;-82
2021/03/29 07:33:53;;;;;;;12.00;8.68;;;;;;;3.80;64.04;94394.18;1775202;80;21021;-82
2021/03/29 07:36:43;;;;;;;16.73;8.73;;;;;;;4.06;62.49;94393.45;1769859;81;21586;-80
2021/03/29 07:39:12;;;;;;;12.63;10.45;;;;;;;4.25;61.61;94395.66;1734283;79;21174;-78
2021/03/29 07:41:40;;;;;;;15.20;10.08;;;;;;;4.42;60.96;94386.61;1803600;79;21627;-84
2021/03/29 07:44:18;;;;;;;12.28;9.10;;;;;;;4.55;60.52;94392.27;1808373;77;21080;-77
2021/03/29 07:46:48;;;;;;;14.73;9.73;;;;;;;4.61;61.13;94392.27;1750814;80;21152;-76
2021/03/29 07:49:42;;;;;;;13.60;9.03;;;;;;;4.69;59.36;94401.38;1745325;81;21150;-78
2021/03/29 07:52:28;;;;;;;15.28;10.00;;;;;;;4.74;59.33;94390.94;1747204;81;21137;-80
2021/03/29 07:54:58;;;;;;;12.93;9.45;;;;;;;4.90;60.08;94399.19;1777110;80;21195;-81
2021/03/29 07:57:55;;;;;;;12.05;9.25;;;;;;;5.15;59.03;94397.28;1796710;79;21132;-83
2021/03/29 08:00:31;;;;;;;14.68;10.38;;;;;;;5.31;58.75;94401.68;1753790;80;21140;-81
2021/03/29 08:03:11;;;;;;;11.80;8.65;;;;;;;5.47;58.82;94405.05;1778117;80;21583;-78
2021/03/29 08:05:46;;;;;;;12.73;7.97;;;;;;;5.59;58.21;94402.33;1841467;77;21045;-82
2021/03/29 08:08:34;;;;;;;10.10;6.47;;;;;;;5.75;56.96;94402.41;1771901;80;21371;-82
2021/03/29 08:11:14;;;;;;;11.60;7.30;;;;;;;5.75;55.13;94407.24;1770049;81;21160;-80
2021/03/29 08:13:54;;;;;;;10.60;7.85;;;;;;;5.72;55.85;94404.46;1843501;77;21096;-81
2021/03/29 08:16:29;;;;;;;8.80;6.15;;;;;;;5.82;56.31;94404.76;1771407;80;21221;-81
2021/03/29 08:19:19;;;;;;;9.73;7.00;;;;;;;6.03;56.76;94400.59;1756400;80;21549;-79
2021/03/29 08:22:09;;;;;;;9.30;6.30;;;;;;;6.22;56.29;94409.98;1769585;79;22258;-79
2021/03/29 08:24:41;;;;;;;13.18;7.28;;;;;;;6.41;56.28;94414.75;1825541;78;21062;-82
2021/03/29 08:27:22;;;;;;;11.40;7.42;;;;;;;6.52;54.18;94413.13;1822668;78;21168;-82
2021/03/29 08:29:53;;;;;;;8.73;6.45;;;;;;;6.61;53.55;94416.45;1786318;80;21052;-80
2021/03/29 08:32:33;;;;;;;9.88;6.62;;;;;;;6.83;53.56;94406.21;1773701;79;21497;-78
2021/03/29 08:35:09;;;;;;;10.35;5.85;;;;;;;7.13;52.25;94412.00;1769600;79;21214;-80
2021/03/29 08:37:44;;;;;;;8.68;5.60;;;;;;;7.45;51.70;94411.44;1770737;80;21094;-78
2021/03/29 08:40:30;;;;;;;10.35;5.70;;;;;;;7.69;50.43;94414.48;1780414;80;21188;-77
2021/03/29 08:43:07;;;;;;;10.58;6.30;;;;;;;7.89;50.53;94408.55;1730899;79;21088;-82
2021/03/29 08:45:35;;;;;;;11.30;6.15;;;;;;;8.13;48.08;94409.66;1780427;80;21550;-80
2021/03/29 08:48:04;;;;;;;9.95;7.00;;;;;;;8.45;47.79;94407.63;1780387;80;21617;-81
2021/03/29 08:50:36;;;;;;;8.40;5.67;;;;;;;8.82;47.45;94407.17;1723410;81;21594;-83
2021/03/29 08:53:07;;;;;;;7.28;5.17;;;;;;;9.17;45.58;94408.36;1797941;78;21131;-83
2021/03/29 08:55:40;;;;;;;8.10;5.00;;;;;;;9.53;46.80;94408.95;1756756;80;21108;-84
2021/03/29 08:58:09;;;;;;;6.97;5.03;;;;;;;10.04;45.35;94412.64;1770221;79;21120;-82
2021/03/29 09:00:39;;;;;;;5.65;4.00;;;;;;;10.36;43.74;94413.66;1779430;80;21430;-82
2021/03/29 09:03:19;;;;;;;7.55;4.75;;;;;;;10.47;42.76;94407.78;1800588;79;21077;-82
2021/03/29 09:05:47;;;;;;;6.65;4.75;;;;;;;10.52;42.14;94407.44;1770862;81;21057;-81
2021/03/29 09:08:16;;;;;;;6.70;4.85;;;;;;;10.42;41.40;94403.45;1800643;79;21180;-82
2021/03/29 09:10:44;;;;;;;6.30;4.50;;;;;;;10.29;41.49;94409.48;1768257;80;21139;-81
2021/03/29 09:13:14;;;;;;;5.45;4.37;;;;;;;10.14;42.23;94411.20;1800941;79;22236;-84
2021/03/29 09:15:44;;;;;;;7.75;4.53;;;;;;;10.01;41.82;94401.14;1771174;81;21144;-81
2021/03/29 09:18:22;;;;;;;8.08;4.55;;;;;;;10.02;43.00;94401.34;1800903;79;21579;-77
2021/03/29 09:20:51;;;;;;;7.25;4.58;;;;;;;10.31;43.21;94401.76;1770716;81;21048;-81
2021/03/29 09:23:21;;;;;;;4.60;3.87;;;;;;;10.63;41.28;94397.47;1801220;79;21045;-78
2021/03/29 09:25:51;;;;;;;5.17;4.20;;;;;;;10.67;40.67;94401.01;1769775;80;21367;-81
2021/03/29 09:31:20;;;;;;;7.12;4.20;;;;;;;10.51;41.09;94403.16;1765874;81;21080;-82
2021/03/29 09:33:48;;;;;;;6.33;4.70;;;;;;;10.44;40.69;94401.71;1801929;79;21180;-81
2021/03/29 09:36:19;;;;;;;4.95;4.12;;;;;;;10.39;42.46;94406.91;1767704;80;21638;-79
2021/03/29 09:38:50;;;;;;;7.05;4.40;;;;;;;10.45;39.86;94401.91;1800848;79;22143;-82
2021/03/29 09:41:27;;;;;;;5.70;3.95;;;;;;;10.41;40.06;94402.45;1768394;81;21164;-80
2021/03/29 09:43:56;;;;;;;5.50;3.83;;;;;;;10.35;40.11;94403.94;1800313;79;21192;-81
2021/03/29 09:46:28;;;;;;;6.17;4.15;;;;;;;10.10;40.80;94409.79;1769619;81;21610;-82
2021/03/29 09:49:14;;;;;;;8.05;3.85;;;;;;;9.93;41.56;94406.27;1799643;79;21180;-81
2021/03/29 09:51:45;;;;;;;5.17;3.67;;;;;;;9.80;41.91;94403.54;1770937;81;21359;-79
2021/03/29 09:54:29;;;;;;;7.50;4.35;;;;;;;9.57;42.78;94410.38;1800535;79;21670;-79
2021/03/29 09:56:58;;;;;;;6.60;5.10;;;;;;;9.31;43.47;94409.19;1768837;81;21061;-80
2021/03/29 09:59:31;;;;;;;5.65;3.90;;;;;;;9.14;43.97;94409.11;1800975;79;21575;-82
2021/03/29 10:01:59;;;;;;;4.90;3.90;;;;;;;9.12;44.88;94404.59;1769393;80;21639;-82
2021/03/29 10:04:26;;;;;;;7.45;3.87;;;;;;;9.18;43.61;94401.81;1800312;79;21339;-80
2021/03/29 10:06:57;;;;;;;6.40;4.20;;;;;;;9.10;42.10;94400.67;1769054;81;21193;-83
2021/03/29 10:09:35;;;;;;;5.53;4.35;;;;;;;8.92;43.00;94405.80;1802765;79;21176;-80
2021/03/29 10:12:04;;;;;;;8.70;4.55;;;;;;;8.82;44.09;94411.81;1768717;81;21152;-81
2021/03/29 10:14:38;;;;;;;6.10;4.30;;;;;;;8.80;42.78;94411.38;1800456;79;21133;-85
2021/03/29 10:17:18;;;;;;;6.28;3.70;;;;;;;8.71;41.57;94415.67;1801053;79;22310;-85
2021/03/29 10:19:47;;;;;;;5.90;3.95;;;;;;;8.41;40.89;94408.13;1768632;81;21698;-85
2021/03/29 10:22:18;;;;;;;4.15;3.20;;;;;;;8.03;43.15;94412.34;1799507;79;21157;-85
2021/03/29 10:25:04;;;;;;;6.70;3.42;;;;;;;8.00;44.60;94413.05;1801897;79;21171;-82
2021/03/29 10:27:52;;;;;;;4.42;3.67;;;;;;;8.11;45.38;94406.52;1806457;79;21562;-85
2021/03/29 10:30:28;;;;;;;4.80;3.52;;;;;;;8.23;44.89;94405.02;1833930;78;21611;-82
2021/03/29 10:32:58;;;;;;;5.55;3.67;;;;;;;8.27;44.39;94409.16;1776142;80;21081;-84
2021/03/29 10:36:19;;;;;;;4.60;3.67;;;;;;;8.27;44.28;94405.91;1846507;77;28496;-79
2021/03/29 10:38:47;;;;;;;7.35;3.95;;;;;;;8.15;41.81;94408.72;1828534;78;21028;-78
2021/03/29 10:41:15;;;;;;;6.80;3.60;;;;;;;8.05;42.92;94410.66;1822777;78;21199;-79
2021/03/29 10:43:43;;;;;;;5.37;3.50;;;;;;;7.92;41.73;94408.63;1772303;80;21183;-78
2021/03/29 10:46:11;;;;;;;4.70;3.05;;;;;;;7.75;43.49;94408.45;1761901;80;21737;-79
2021/03/29 10:48:39;;;;;;;4.53;3.47;;;;;;;7.70;44.25;94407.36;1745715;82;21531;-78
2021/03/29 10:51:07;;;;;;;7.62;3.35;;;;;;;7.70;45.52;94405.22;1792842;78;21188;-79
2021/03/29 10:53:36;;;;;;;5.80;3.20;;;;;;;7.76;46.49;94406.53;1757801;79;21159;-79
2021/03/29 10:56:04;;;;;;;6.55;3.80;;;;;;;7.84;45.05;94409.61;1747271;82;21179;-79
2021/03/29 10:58:33;;;;;;;6.15;3.95;;;;;;;7.98;45.45;94410.50;1750140;82;21105;-80
2021/03/29 11:01:00;;;;;;;6.60;3.83;;;;;;;8.09;44.33;94407.45;1753671;79;21171;-79
2021/03/29 11:03:28;;;;;;;5.67;3.90;;;;;;;8.15;41.75;94403.88;1774651;80;21075;-78
2021/03/29 11:05:56;;;;;;;8.50;3.50;;;;;;;8.14;41.74;94399.61;1720871;80;22336;-79
2021/03/29 11:08:24;;;;;;;4.17;3.05;;;;;;;8.07;42.33;94401.59;1811067;77;21268;-79
2021/03/29 11:10:52;;;;;;;5.72;3.42;;;;;;;8.05;43.90;94401.17;1798238;79;21175;-74
2021/03/29 11:13:23;;;;;;;6.55;3.40;;;;;;;8.01;42.21;94395.68;1812652;75;21136;-78
2021/03/29 11:15:52;;;;;;;5.00;3.00;;;;;;;7.89;42.93;94398.49;1743754;81;21202;-79
2021/03/29 11:18:20;;;;;;;6.92;4.05;;;;;;;7.73;43.91;94398.53;1753087;81;21421;-78
2021/03/29 11:20:48;;;;;;;6.12;3.62;;;;;;;7.63;44.58;94408.55;1811597;79;21189;-78
2021/03/29 11:23:16;;;;;;;6.00;3.87;;;;;;;7.58;45.86;94402.63;1764468;80;21563;-78
2021/03/29 11:25:45;;;;;;;5.42;3.20;;;;;;;7.55;44.62;94404.89;1762003;79;21187;-79
2021/03/29 11:28:12;;;;;;;4.58;3.17;;;;;;;7.52;45.81;94402.10;1819831;78;21175;-79
2021/03/29 11:30:40;;;;;;;5.33;3.65;;;;;;;7.53;46.02;94401.77;1744030;82;21475;-79
2021/03/29 11:33:07;;;;;;;4.70;3.30;;;;;;;7.68;46.93;94397.47;1820828;78;21166;-79
2021/03/29 11:35:36;;;;;;;4.03;3.05;;;;;;;7.89;46.68;94401.20;1772236;78;21179;-78
2021/03/29 11:38:05;;;;;;;5.05;3.52;;;;;;;8.03;44.98;94397.45;1793763;78;21176;-77
2021/03/29 11:40:33;;;;;;;4.53;3.15;;;;;;;8.16;44.29;94387.83;1819904;77;21125;-74
2021/03/29 11:43:00;;;;;;;7.78;3.52;;;;;;;8.18;43.78;94394.47;1814471;78;21361;-77
2021/03/29 11:45:29;;;;;;;5.35;3.20;;;;;;;8.20;45.00;94391.42;1794557;79;21119;-77
2021/03/29 11:47:56;;;;;;;5.70;3.27;;;;;;;8.23;45.86;94391.47;1784240;78;20981;-77
2021/03/29 11:50:24;;;;;;;5.20;2.95;;;;;;;8.21;45.11;94386.99;1763449;81;21113;-76
2021/03/29 11:52:52;;;;;;;5.83;3.47;;;;;;;8.18;45.57;94396.40;1754602;81;21208;-76
2021/03/29 11:55:20;;;;;;;3.33;2.87;;;;;;;8.25;46.16;94395.20;1760702;80;21388;-76